sensor_id;sensor_type;location;lat;lon;timestamp;P1;durP1;ratioP1;P2;durP2;ratioP2
4448;SDS011;2237;51.870;6.160;2023-04-01T00:01:05;1.58;;;0.50;;
4448;SDS011;2237;51.870;6.160;2023-04-01T00:03:32;2.75;;;1.10;;
4448;SDS011;2237;51.870;6.160;2023-04-01T00:06:00;1.70;;;0.55;;
4448;SDS011;2237;51.870;6.160;2023-04-01T00:08:27;0.98;;;0.50;;
4448;SDS011;2237;51.870;6.160;2023-04-01T00:10:55;3.25;;;0.73;;
4448;SDS011;2237;51.870;6.160;2023-04-01T00:13:23;3.63;;;0.47;;
4448;SDS011;2237;51.870;6.160;2023-04-01T00:15:52;1.77;;;0.70;;
4448;SDS011;2237;51.870;6.160;2023-04-01T00:18:21;1.20;;;0.50;;
4448;SDS011;2237;51.870;6.160;2023-04-01T00:20:49;2.15;;;0.85;;
4448;SDS011;2237;51.870;6.160;2023-04-01T00:23:16;3.28;;;0.65;;
4448;SDS011;2237;51.870;6.160;2023-04-01T00:25:44;2.65;;;0.98;;
4448;SDS011;2237;51.870;6.160;2023-04-01T00:28:13;2.30;;;0.85;;
4448;SDS011;2237;51.870;6.160;2023-04-01T00:30:40;4.28;;;1.13;;
4448;SDS011;2237;51.870;6.160;2023-04-01T00:33:07;4.13;;;0.68;;
4448;SDS011;2237;51.870;6.160;2023-04-01T00:35:33;3.03;;;0.85;;
4448;SDS011;2237;51.870;6.160;2023-04-01T00:38:00;2.25;;;0.60;;
4448;SDS011;2237;51.870;6.160;2023-04-01T00:40:28;2.13;;;0.93;;
4448;SDS011;2237;51.870;6.160;2023-04-01T00:43:00;2.20;;;0.75;;
4448;SDS011;2237;51.870;6.160;2023-04-01T00:47:57;3.97;;;0.90;;
4448;SDS011;2237;51.870;6.160;2023-04-01T00:50:27;1.27;;;0.60;;
4448;SDS011;2237;51.870;6.160;2023-04-01T00:52:56;1.75;;;0.60;;
4448;SDS011;2237;51.870;6.160;2023-04-01T00:55:24;2.53;;;0.70;;
4448;SDS011;2237;51.870;6.160;2023-04-01T00:57:53;2.08;;;0.77;;
4448;SDS011;2237;51.870;6.160;2023-04-01T01:00:23;2.25;;;0.70;;
4448;SDS011;2237;51.870;6.160;2023-04-01T01:02:49;2.55;;;0.70;;
4448;SDS011;2237;51.870;6.160;2023-04-01T01:05:17;1.88;;;0.73;;
4448;SDS011;2237;51.870;6.160;2023-04-01T01:10:32;2.47;;;1.00;;
4448;SDS011;2237;51.870;6.160;2023-04-01T01:18:56;2.28;;;1.17;;
4448;SDS011;2237;51.870;6.160;2023-04-01T01:27:17;4.03;;;1.20;;
4448;SDS011;2237;51.870;6.160;2023-04-01T01:35:22;2.70;;;1.02;;
4448;SDS011;2237;51.870;6.160;2023-04-01T01:38:07;1.92;;;0.88;;
4448;SDS011;2237;51.870;6.160;2023-04-01T01:40:37;1.58;;;0.80;;
4448;SDS011;2237;51.870;6.160;2023-04-01T01:43:10;2.92;;;1.13;;
4448;SDS011;2237;51.870;6.160;2023-04-01T01:48:10;2.70;;;0.93;;
4448;SDS011;2237;51.870;6.160;2023-04-01T01:50:37;4.30;;;1.60;;
4448;SDS011;2237;51.870;6.160;2023-04-01T01:53:08;2.22;;;1.35;;
4448;SDS011;2237;51.870;6.160;2023-04-01T01:55:37;3.15;;;1.77;;
4448;SDS011;2237;51.870;6.160;2023-04-01T02:00:45;4.43;;;2.00;;
4448;SDS011;2237;51.870;6.160;2023-04-01T02:03:16;5.03;;;2.30;;
4448;SDS011;2237;51.870;6.160;2023-04-01T02:05:45;3.42;;;1.98;;
4448;SDS011;2237;51.870;6.160;2023-04-01T02:08:13;4.40;;;2.10;;
4448;SDS011;2237;51.870;6.160;2023-04-01T02:10:46;5.53;;;2.25;;
4448;SDS011;2237;51.870;6.160;2023-04-01T02:13:21;4.78;;;2.38;;
4448;SDS011;2237;51.870;6.160;2023-04-01T02:15:56;5.70;;;2.25;;
4448;SDS011;2237;51.870;6.160;2023-04-01T02:18:27;6.72;;;2.75;;
4448;SDS011;2237;51.870;6.160;2023-04-01T02:20:56;5.45;;;2.70;;
4448;SDS011;2237;51.870;6.160;2023-04-01T02:23:25;4.72;;;2.10;;
4448;SDS011;2237;51.870;6.160;2023-04-01T02:25:53;4.25;;;2.33;;
4448;SDS011;2237;51.870;6.160;2023-04-01T02:28:20;4.97;;;2.70;;
4448;SDS011;2237;51.870;6.160;2023-04-01T02:30:49;5.57;;;2.45;;
4448;SDS011;2237;51.870;6.160;2023-04-01T02:33:17;4.22;;;1.95;;
4448;SDS011;2237;51.870;6.160;2023-04-01T02:35:45;5.78;;;2.85;;
4448;SDS011;2237;51.870;6.160;2023-04-01T02:38:12;4.78;;;2.35;;
4448;SDS011;2237;51.870;6.160;2023-04-01T02:40:46;6.07;;;2.70;;
4448;SDS011;2237;51.870;6.160;2023-04-01T02:43:17;4.47;;;2.45;;
4448;SDS011;2237;51.870;6.160;2023-04-01T02:45:44;5.70;;;2.75;;
4448;SDS011;2237;51.870;6.160;2023-04-01T02:48:11;5.65;;;2.00;;
4448;SDS011;2237;51.870;6.160;2023-04-01T02:50:38;3.53;;;2.08;;
4448;SDS011;2237;51.870;6.160;2023-04-01T02:53:05;5.15;;;2.70;;
4448;SDS011;2237;51.870;6.160;2023-04-01T02:55:32;9.52;;;3.22;;
4448;SDS011;2237;51.870;6.160;2023-04-01T02:58:00;5.97;;;3.63;;
4448;SDS011;2237;51.870;6.160;2023-04-01T03:00:27;4.47;;;2.53;;
4448;SDS011;2237;51.870;6.160;2023-04-01T03:02:53;7.10;;;2.65;;
4448;SDS011;2237;51.870;6.160;2023-04-01T03:05:20;5.07;;;2.88;;
4448;SDS011;2237;51.870;6.160;2023-04-01T03:07:47;5.78;;;3.30;;
4448;SDS011;2237;51.870;6.160;2023-04-01T03:10:13;5.60;;;2.97;;
4448;SDS011;2237;51.870;6.160;2023-04-01T03:12:40;6.05;;;3.13;;
4448;SDS011;2237;51.870;6.160;2023-04-01T03:15:06;6.15;;;3.10;;
4448;SDS011;2237;51.870;6.160;2023-04-01T03:17:37;4.50;;;2.47;;
4448;SDS011;2237;51.870;6.160;2023-04-01T03:20:04;4.70;;;2.17;;
4448;SDS011;2237;51.870;6.160;2023-04-01T03:22:31;5.05;;;2.00;;
4448;SDS011;2237;51.870;6.160;2023-04-01T03:24:58;5.85;;;2.78;;
4448;SDS011;2237;51.870;6.160;2023-04-01T03:27:24;5.57;;;2.80;;
4448;SDS011;2237;51.870;6.160;2023-04-01T03:29:50;4.50;;;2.30;;
4448;SDS011;2237;51.870;6.160;2023-04-01T03:32:17;4.45;;;2.50;;
4448;SDS011;2237;51.870;6.160;2023-04-01T03:34:43;5.93;;;3.15;;
4448;SDS011;2237;51.870;6.160;2023-04-01T03:37:09;5.43;;;2.92;;
4448;SDS011;2237;51.870;6.160;2023-04-01T03:39:36;5.95;;;2.92;;
4448;SDS011;2237;51.870;6.160;2023-04-01T03:42:02;5.60;;;2.67;;
4448;SDS011;2237;51.870;6.160;2023-04-01T03:44:32;5.47;;;2.60;;
4448;SDS011;2237;51.870;6.160;2023-04-01T03:46:59;4.07;;;1.80;;
4448;SDS011;2237;51.870;6.160;2023-04-01T03:49:26;4.60;;;1.90;;
4448;SDS011;2237;51.870;6.160;2023-04-01T03:51:53;2.75;;;1.48;;
4448;SDS011;2237;51.870;6.160;2023-04-01T03:54:19;3.10;;;1.63;;
4448;SDS011;2237;51.870;6.160;2023-04-01T03:56:46;4.80;;;1.50;;
4448;SDS011;2237;51.870;6.160;2023-04-01T03:59:13;3.28;;;1.77;;
4448;SDS011;2237;51.870;6.160;2023-04-01T04:01:39;5.30;;;2.30;;
4448;SDS011;2237;51.870;6.160;2023-04-01T04:04:06;4.57;;;2.38;;
4448;SDS011;2237;51.870;6.160;2023-04-01T04:06:32;7.25;;;2.40;;
4448;SDS011;2237;51.870;6.160;2023-04-01T04:08:59;3.95;;;1.95;;
4448;SDS011;2237;51.870;6.160;2023-04-01T04:11:25;5.20;;;2.63;;
4448;SDS011;2237;51.870;6.160;2023-04-01T04:13:52;4.35;;;2.33;;
4448;SDS011;2237;51.870;6.160;2023-04-01T04:16:19;3.47;;;2.10;;
4448;SDS011;2237;51.870;6.160;2023-04-01T04:18:46;4.10;;;2.05;;
4448;SDS011;2237;51.870;6.160;2023-04-01T04:21:13;3.65;;;2.00;;
4448;SDS011;2237;51.870;6.160;2023-04-01T04:23:40;3.67;;;1.77;;
4448;SDS011;2237;51.870;6.160;2023-04-01T04:26:07;3.08;;;1.48;;
4448;SDS011;2237;51.870;6.160;2023-04-01T04:28:36;4.55;;;1.92;;
4448;SDS011;2237;51.870;6.160;2023-04-01T04:31:03;3.33;;;1.70;;
4448;SDS011;2237;51.870;6.160;2023-04-01T04:33:31;3.67;;;1.75;;
4448;SDS011;2237;51.870;6.160;2023-04-01T04:35:58;3.00;;;1.50;;
4448;SDS011;2237;51.870;6.160;2023-04-01T04:38:26;2.35;;;1.38;;
4448;SDS011;2237;51.870;6.160;2023-04-01T04:40:53;3.20;;;1.58;;
4448;SDS011;2237;51.870;6.160;2023-04-01T04:43:20;4.20;;;1.40;;
4448;SDS011;2237;51.870;6.160;2023-04-01T04:45:47;3.75;;;1.75;;
4448;SDS011;2237;51.870;6.160;2023-04-01T04:48:14;5.10;;;2.00;;
4448;SDS011;2237;51.870;6.160;2023-04-01T04:50:45;3.47;;;1.80;;
4448;SDS011;2237;51.870;6.160;2023-04-01T04:53:16;3.55;;;1.58;;
4448;SDS011;2237;51.870;6.160;2023-04-01T04:55:48;4.72;;;1.98;;
4448;SDS011;2237;51.870;6.160;2023-04-01T04:58:16;3.83;;;1.65;;
4448;SDS011;2237;51.870;6.160;2023-04-01T05:00:43;3.63;;;1.73;;
4448;SDS011;2237;51.870;6.160;2023-04-01T05:03:09;4.32;;;1.73;;
4448;SDS011;2237;51.870;6.160;2023-04-01T05:05:37;4.13;;;2.10;;
4448;SDS011;2237;51.870;6.160;2023-04-01T05:08:04;4.45;;;2.47;;
4448;SDS011;2237;51.870;6.160;2023-04-01T05:10:31;4.82;;;1.98;;
4448;SDS011;2237;51.870;6.160;2023-04-01T05:12:58;2.92;;;1.90;;
4448;SDS011;2237;51.870;6.160;2023-04-01T05:15:24;5.20;;;1.92;;
4448;SDS011;2237;51.870;6.160;2023-04-01T05:17:51;3.65;;;1.70;;
4448;SDS011;2237;51.870;6.160;2023-04-01T05:20:17;4.13;;;2.40;;
4448;SDS011;2237;51.870;6.160;2023-04-01T05:22:44;2.97;;;1.40;;
4448;SDS011;2237;51.870;6.160;2023-04-01T05:25:10;6.18;;;2.67;;
4448;SDS011;2237;51.870;6.160;2023-04-01T05:27:37;3.97;;;2.20;;
4448;SDS011;2237;51.870;6.160;2023-04-01T05:30:04;3.90;;;2.17;;
4448;SDS011;2237;51.870;6.160;2023-04-01T05:32:31;4.90;;;2.63;;
4448;SDS011;2237;51.870;6.160;2023-04-01T05:34:58;6.80;;;2.53;;
4448;SDS011;2237;51.870;6.160;2023-04-01T05:37:24;7.10;;;2.85;;
4448;SDS011;2237;51.870;6.160;2023-04-01T05:39:51;5.43;;;2.90;;
4448;SDS011;2237;51.870;6.160;2023-04-01T05:42:17;7.50;;;3.35;;
4448;SDS011;2237;51.870;6.160;2023-04-01T05:44:44;7.10;;;3.03;;
4448;SDS011;2237;51.870;6.160;2023-04-01T05:47:10;7.05;;;3.50;;
4448;SDS011;2237;51.870;6.160;2023-04-01T05:49:37;5.60;;;3.10;;
4448;SDS011;2237;51.870;6.160;2023-04-01T05:52:03;6.32;;;3.25;;
4448;SDS011;2237;51.870;6.160;2023-04-01T05:54:29;4.88;;;2.45;;
4448;SDS011;2237;51.870;6.160;2023-04-01T05:56:56;6.03;;;3.15;;
4448;SDS011;2237;51.870;6.160;2023-04-01T05:59:22;5.30;;;2.80;;
4448;SDS011;2237;51.870;6.160;2023-04-01T06:01:49;5.60;;;2.88;;
4448;SDS011;2237;51.870;6.160;2023-04-01T06:04:17;4.80;;;2.88;;
4448;SDS011;2237;51.870;6.160;2023-04-01T06:06:44;4.75;;;2.35;;
4448;SDS011;2237;51.870;6.160;2023-04-01T06:09:18;7.63;;;2.80;;
4448;SDS011;2237;51.870;6.160;2023-04-01T06:12:07;6.70;;;2.90;;
4448;SDS011;2237;51.870;6.160;2023-04-01T06:17:51;7.25;;;3.20;;
4448;SDS011;2237;51.870;6.160;2023-04-01T06:26:34;4.70;;;1.83;;
4448;SDS011;2237;51.870;6.160;2023-04-01T06:29:12;5.82;;;2.90;;
4448;SDS011;2237;51.870;6.160;2023-04-01T06:32:15;7.65;;;3.28;;
4448;SDS011;2237;51.870;6.160;2023-04-01T06:40:48;9.00;;;4.47;;
4448;SDS011;2237;51.870;6.160;2023-04-01T06:43:59;8.82;;;4.68;;
4448;SDS011;2237;51.870;6.160;2023-04-01T06:46:41;12.82;;;5.15;;
4448;SDS011;2237;51.870;6.160;2023-04-01T06:52:19;10.68;;;4.80;;
4448;SDS011;2237;51.870;6.160;2023-04-01T06:54:57;7.68;;;3.65;;
4448;SDS011;2237;51.870;6.160;2023-04-01T06:57:48;9.98;;;3.95;;
4448;SDS011;2237;51.870;6.160;2023-04-01T07:03:40;9.60;;;3.95;;
4448;SDS011;2237;51.870;6.160;2023-04-01T07:05:39;8.20;;;3.85;;
4448;SDS011;2237;51.870;6.160;2023-04-01T07:08:11;14.10;;;4.63;;
4448;SDS011;2237;51.870;6.160;2023-04-01T07:10:46;10.30;;;4.50;;
4448;SDS011;2237;51.870;6.160;2023-04-01T07:13:21;12.82;;;5.10;;
4448;SDS011;2237;51.870;6.160;2023-04-01T07:15:58;12.02;;;5.28;;
4448;SDS011;2237;51.870;6.160;2023-04-01T07:18:50;12.80;;;4.60;;
4448;SDS011;2237;51.870;6.160;2023-04-01T07:21:47;13.32;;;5.10;;
4448;SDS011;2237;51.870;6.160;2023-04-01T07:24:25;14.50;;;5.20;;
4448;SDS011;2237;51.870;6.160;2023-04-01T07:26:56;12.90;;;4.75;;
4448;SDS011;2237;51.870;6.160;2023-04-01T07:29:23;12.18;;;4.75;;
4448;SDS011;2237;51.870;6.160;2023-04-01T07:43:22;10.27;;;3.72;;
4448;SDS011;2237;51.870;6.160;2023-04-01T07:46:03;9.02;;;3.53;;
4448;SDS011;2237;51.870;6.160;2023-04-01T07:51:31;5.53;;;2.28;;
4448;SDS011;2237;51.870;6.160;2023-04-01T07:54:13;7.05;;;2.70;;
4448;SDS011;2237;51.870;6.160;2023-04-01T08:05:29;4.63;;;1.80;;
4448;SDS011;2237;51.870;6.160;2023-04-01T08:21:42;2.97;;;1.02;;
4448;SDS011;2237;51.870;6.160;2023-04-01T08:24:25;4.55;;;1.40;;
4448;SDS011;2237;51.870;6.160;2023-04-01T08:32:57;3.88;;;1.42;;
4448;SDS011;2237;51.870;6.160;2023-04-01T08:44:11;3.08;;;1.17;;
4448;SDS011;2237;51.870;6.160;2023-04-01T08:53:15;1.95;;;0.82;;
4448;SDS011;2237;51.870;6.160;2023-04-01T08:55:41;2.53;;;1.25;;
4448;SDS011;2237;51.870;6.160;2023-04-01T09:01:13;2.13;;;1.20;;
4448;SDS011;2237;51.870;6.160;2023-04-01T09:06:45;3.38;;;0.82;;
4448;SDS011;2237;51.870;6.160;2023-04-01T09:15:30;2.25;;;1.05;;
4448;SDS011;2237;51.870;6.160;2023-04-01T09:21:08;0.88;;;0.40;;
4448;SDS011;2237;51.870;6.160;2023-04-01T09:26:42;1.33;;;0.70;;
4448;SDS011;2237;51.870;6.160;2023-04-01T09:38:20;2.47;;;0.73;;
4448;SDS011;2237;51.870;6.160;2023-04-01T09:40:54;1.67;;;0.70;;
4448;SDS011;2237;51.870;6.160;2023-04-01T09:43:22;2.28;;;0.88;;
4448;SDS011;2237;51.870;6.160;2023-04-01T09:45:56;1.15;;;0.50;;
4448;SDS011;2237;51.870;6.160;2023-04-01T09:54:13;1.83;;;0.88;;
4448;SDS011;2237;51.870;6.160;2023-04-01T09:57:15;1.75;;;1.05;;
4448;SDS011;2237;51.870;6.160;2023-04-01T10:05:45;2.35;;;0.82;;
4448;SDS011;2237;51.870;6.160;2023-04-01T10:09:02;2.40;;;0.60;;
4448;SDS011;2237;51.870;6.160;2023-04-01T10:25:18;1.17;;;0.80;;
4448;SDS011;2237;51.870;6.160;2023-04-01T10:36:48;1.65;;;0.80;;
4448;SDS011;2237;51.870;6.160;2023-04-01T10:39:31;2.50;;;0.93;;
4448;SDS011;2237;51.870;6.160;2023-04-01T10:47:54;2.05;;;1.00;;
4448;SDS011;2237;51.870;6.160;2023-04-01T11:07:54;2.83;;;1.25;;
4448;SDS011;2237;51.870;6.160;2023-04-01T11:25:05;10.02;;;4.78;;
4448;SDS011;2237;51.870;6.160;2023-04-01T11:31:00;7.55;;;3.72;;
4448;SDS011;2237;51.870;6.160;2023-04-01T11:39:24;7.90;;;3.75;;
4448;SDS011;2237;51.870;6.160;2023-04-01T11:42:01;6.80;;;3.20;;
4448;SDS011;2237;51.870;6.160;2023-04-01T11:44:55;15.70;;;5.38;;
4448;SDS011;2237;51.870;6.160;2023-04-01T11:51:03;6.95;;;3.28;;
4448;SDS011;2237;51.870;6.160;2023-04-01T11:56:21;8.38;;;4.50;;
4448;SDS011;2237;51.870;6.160;2023-04-01T11:59:19;5.78;;;3.30;;
4448;SDS011;2237;51.870;6.160;2023-04-01T12:02:11;7.13;;;3.72;;
4448;SDS011;2237;51.870;6.160;2023-04-01T12:08:01;11.68;;;4.97;;
4448;SDS011;2237;51.870;6.160;2023-04-01T12:15:54;9.52;;;4.20;;
4448;SDS011;2237;51.870;6.160;2023-04-01T12:18:42;8.63;;;4.47;;
4448;SDS011;2237;51.870;6.160;2023-04-01T12:21:29;9.73;;;4.18;;
4448;SDS011;2237;51.870;6.160;2023-04-01T12:29:49;10.57;;;5.50;;
4448;SDS011;2237;51.870;6.160;2023-04-01T12:32:46;14.63;;;6.97;;
4448;SDS011;2237;51.870;6.160;2023-04-01T12:35:43;14.70;;;6.72;;
4448;SDS011;2237;51.870;6.160;2023-04-01T12:38:43;14.75;;;7.97;;
4448;SDS011;2237;51.870;6.160;2023-04-01T12:44:26;11.77;;;5.80;;
4448;SDS011;2237;51.870;6.160;2023-04-01T12:50:06;9.75;;;5.15;;
4448;SDS011;2237;51.870;6.160;2023-04-01T12:55:38;8.43;;;4.28;;
4448;SDS011;2237;51.870;6.160;2023-04-01T13:01:09;4.90;;;2.53;;
4448;SDS011;2237;51.870;6.160;2023-04-01T13:04:05;3.03;;;1.17;;
4448;SDS011;2237;51.870;6.160;2023-04-01T13:17:49;2.05;;;0.80;;
4448;SDS011;2237;51.870;6.160;2023-04-01T13:25:54;1.13;;;0.77;;
4448;SDS011;2237;51.870;6.160;2023-04-01T13:28:40;1.25;;;0.60;;
4448;SDS011;2237;51.870;6.160;2023-04-01T13:34:24;1.55;;;0.60;;
4448;SDS011;2237;51.870;6.160;2023-04-01T13:37:19;1.60;;;0.77;;
4448;SDS011;2237;51.870;6.160;2023-04-01T13:40:03;2.05;;;0.90;;
4448;SDS011;2237;51.870;6.160;2023-04-01T13:42:46;1.80;;;0.95;;
4448;SDS011;2237;51.870;6.160;2023-04-01T13:45:24;1.67;;;1.10;;
4448;SDS011;2237;51.870;6.160;2023-04-01T13:51:05;1.67;;;0.90;;
4448;SDS011;2237;51.870;6.160;2023-04-01T13:59:28;1.73;;;1.03;;
4448;SDS011;2237;51.870;6.160;2023-04-01T14:02:10;1.92;;;1.20;;
4448;SDS011;2237;51.870;6.160;2023-04-01T14:04:43;1.75;;;1.13;;
4448;SDS011;2237;51.870;6.160;2023-04-01T14:07:31;1.77;;;1.05;;
4448;SDS011;2237;51.870;6.160;2023-04-01T14:10:04;2.05;;;1.17;;
4448;SDS011;2237;51.870;6.160;2023-04-01T14:12:45;2.08;;;1.13;;
4448;SDS011;2237;51.870;6.160;2023-04-01T14:18:24;2.13;;;1.27;;
4448;SDS011;2237;51.870;6.160;2023-04-01T14:32:57;2.67;;;0.90;;
4448;SDS011;2237;51.870;6.160;2023-04-01T14:41:30;7.15;;;2.75;;
4448;SDS011;2237;51.870;6.160;2023-04-01T14:44:17;3.67;;;1.70;;
4448;SDS011;2237;51.870;6.160;2023-04-01T14:49:24;2.95;;;2.47;;
4448;SDS011;2237;51.870;6.160;2023-04-01T14:52:10;4.18;;;2.28;;
4448;SDS011;2237;51.870;6.160;2023-04-01T14:54:43;3.30;;;1.55;;
4448;SDS011;2237;51.870;6.160;2023-04-01T14:57:13;6.60;;;2.15;;
4448;SDS011;2237;51.870;6.160;2023-04-01T14:59:41;3.20;;;2.35;;
4448;SDS011;2237;51.870;6.160;2023-04-01T15:07:49;4.07;;;2.25;;
4448;SDS011;2237;51.870;6.160;2023-04-01T15:25:05;3.17;;;1.40;;
4448;SDS011;2237;51.870;6.160;2023-04-01T15:27:51;1.58;;;0.90;;
4448;SDS011;2237;51.870;6.160;2023-04-01T15:35:57;2.45;;;1.05;;
4448;SDS011;2237;51.870;6.160;2023-04-01T15:44:46;2.72;;;1.60;;
4448;SDS011;2237;51.870;6.160;2023-04-01T16:03:37;2.83;;;1.10;;
4448;SDS011;2237;51.870;6.160;2023-04-01T16:14:35;2.22;;;1.38;;
4448;SDS011;2237;51.870;6.160;2023-04-01T16:20:18;3.30;;;1.70;;
4448;SDS011;2237;51.870;6.160;2023-04-01T16:22:53;2.75;;;1.60;;
4448;SDS011;2237;51.870;6.160;2023-04-01T16:25:31;4.55;;;2.10;;
4448;SDS011;2237;51.870;6.160;2023-04-01T16:28:19;3.85;;;2.40;;
4448;SDS011;2237;51.870;6.160;2023-04-01T16:30:56;3.70;;;2.63;;
4448;SDS011;2237;51.870;6.160;2023-04-01T16:38:38;5.93;;;3.08;;
4448;SDS011;2237;51.870;6.160;2023-04-01T16:41:14;5.50;;;3.08;;
4448;SDS011;2237;51.870;6.160;2023-04-01T16:43:49;6.07;;;3.65;;
4448;SDS011;2237;51.870;6.160;2023-04-01T16:46:39;11.13;;;6.35;;
4448;SDS011;2237;51.870;6.160;2023-04-01T16:57:01;8.32;;;4.35;;
4448;SDS011;2237;51.870;6.160;2023-04-01T16:59:47;7.93;;;4.60;;
4448;SDS011;2237;51.870;6.160;2023-04-01T17:02:18;5.90;;;3.95;;
4448;SDS011;2237;51.870;6.160;2023-04-01T17:07:30;4.82;;;3.10;;
4448;SDS011;2237;51.870;6.160;2023-04-01T17:12:31;3.50;;;2.10;;
4448;SDS011;2237;51.870;6.160;2023-04-01T17:15:17;3.20;;;2.00;;
4448;SDS011;2237;51.870;6.160;2023-04-01T17:18:03;3.20;;;1.70;;
4448;SDS011;2237;51.870;6.160;2023-04-01T17:28:17;3.88;;;2.00;;
4448;SDS011;2237;51.870;6.160;2023-04-01T17:36:33;4.93;;;3.00;;
4448;SDS011;2237;51.870;6.160;2023-04-01T17:41:53;4.53;;;2.80;;
4448;SDS011;2237;51.870;6.160;2023-04-01T17:47:07;3.80;;;2.60;;
4448;SDS011;2237;51.870;6.160;2023-04-01T18:00:26;3.60;;;2.30;;
4448;SDS011;2237;51.870;6.160;2023-04-01T18:17:12;6.05;;;3.35;;
4448;SDS011;2237;51.870;6.160;2023-04-01T18:25:12;8.43;;;3.85;;
4448;SDS011;2237;51.870;6.160;2023-04-01T18:27:45;5.50;;;3.65;;
4448;SDS011;2237;51.870;6.160;2023-04-01T18:30:29;6.05;;;3.92;;
4448;SDS011;2237;51.870;6.160;2023-04-01T18:36:02;7.03;;;3.38;;
4448;SDS011;2237;51.870;6.160;2023-04-01T18:38:57;6.80;;;3.65;;
4448;SDS011;2237;51.870;6.160;2023-04-01T18:41:38;5.53;;;3.70;;
4448;SDS011;2237;51.870;6.160;2023-04-01T18:52:42;6.05;;;3.80;;
4448;SDS011;2237;51.870;6.160;2023-04-01T18:58:06;6.20;;;4.03;;
4448;SDS011;2237;51.870;6.160;2023-04-01T19:00:41;6.32;;;4.10;;
4448;SDS011;2237;51.870;6.160;2023-04-01T19:03:20;4.93;;;3.45;;
4448;SDS011;2237;51.870;6.160;2023-04-01T19:05:53;5.13;;;3.28;;
4448;SDS011;2237;51.870;6.160;2023-04-01T19:08:27;4.38;;;3.05;;
4448;SDS011;2237;51.870;6.160;2023-04-01T19:11:06;6.28;;;3.42;;
4448;SDS011;2237;51.870;6.160;2023-04-01T19:16:26;3.97;;;2.88;;
4448;SDS011;2237;51.870;6.160;2023-04-01T19:21:58;4.82;;;3.20;;
4448;SDS011;2237;51.870;6.160;2023-04-01T19:25:01;5.43;;;3.60;;
4448;SDS011;2237;51.870;6.160;2023-04-01T19:27:45;5.43;;;3.85;;
4448;SDS011;2237;51.870;6.160;2023-04-01T19:33:05;5.53;;;3.60;;
4448;SDS011;2237;51.870;6.160;2023-04-01T19:35:50;5.63;;;3.25;;
4448;SDS011;2237;51.870;6.160;2023-04-01T19:41:09;4.15;;;2.80;;
4448;SDS011;2237;51.870;6.160;2023-04-01T19:43:50;4.63;;;2.78;;
4448;SDS011;2237;51.870;6.160;2023-04-01T19:46:43;5.20;;;3.17;;
4448;SDS011;2237;51.870;6.160;2023-04-01T19:52:00;3.97;;;2.70;;
4448;SDS011;2237;51.870;6.160;2023-04-01T19:57:13;3.90;;;2.70;;
4448;SDS011;2237;51.870;6.160;2023-04-01T19:59:54;5.40;;;3.47;;
4448;SDS011;2237;51.870;6.160;2023-04-01T20:02:33;3.28;;;2.13;;
4448;SDS011;2237;51.870;6.160;2023-04-01T20:05:16;3.15;;;2.00;;
4448;SDS011;2237;51.870;6.160;2023-04-01T20:08:24;3.85;;;2.50;;
4448;SDS011;2237;51.870;6.160;2023-04-01T20:11:08;3.33;;;2.53;;
4448;SDS011;2237;51.870;6.160;2023-04-01T20:25:16;4.45;;;3.00;;
4448;SDS011;2237;51.870;6.160;2023-04-01T20:27:51;4.78;;;3.28;;
4448;SDS011;2237;51.870;6.160;2023-04-01T20:41:23;4.78;;;3.10;;
4448;SDS011;2237;51.870;6.160;2023-04-01T20:44:08;4.77;;;3.40;;
4448;SDS011;2237;51.870;6.160;2023-04-01T21:03:13;5.70;;;3.92;;
4448;SDS011;2237;51.870;6.160;2023-04-01T21:16:44;5.47;;;3.38;;
4448;SDS011;2237;51.870;6.160;2023-04-01T21:53:01;5.15;;;3.25;;
4448;SDS011;2237;51.870;6.160;2023-04-01T21:55:46;4.10;;;2.88;;
4448;SDS011;2237;51.870;6.160;2023-04-01T22:06:28;2.78;;;2.28;;
4448;SDS011;2237;51.870;6.160;2023-04-01T22:17:16;3.60;;;2.60;;
4448;SDS011;2237;51.870;6.160;2023-04-01T22:22:59;4.10;;;1.90;;
4448;SDS011;2237;51.870;6.160;2023-04-01T22:28:36;2.70;;;2.00;;
4448;SDS011;2237;51.870;6.160;2023-04-01T22:31:03;3.67;;;1.80;;
4448;SDS011;2237;51.870;6.160;2023-04-01T22:39:17;3.83;;;2.00;;
4448;SDS011;2237;51.870;6.160;2023-04-01T22:41:56;3.15;;;2.00;;
4448;SDS011;2237;51.870;6.160;2023-04-01T22:47:34;4.03;;;1.80;;
4448;SDS011;2237;51.870;6.160;2023-04-01T22:50:18;3.00;;;1.70;;
4448;SDS011;2237;51.870;6.160;2023-04-01T22:52:49;3.08;;;1.70;;
4448;SDS011;2237;51.870;6.160;2023-04-01T22:55:25;2.50;;;1.65;;
4448;SDS011;2237;51.870;6.160;2023-04-01T23:00:48;2.65;;;1.80;;
4448;SDS011;2237;51.870;6.160;2023-04-01T23:03:25;2.75;;;2.00;;
4448;SDS011;2237;51.870;6.160;2023-04-01T23:06:02;3.38;;;2.58;;
4448;SDS011;2237;51.870;6.160;2023-04-01T23:11:24;3.33;;;2.25;;
4448;SDS011;2237;51.870;6.160;2023-04-01T23:14:05;2.50;;;1.75;;
4448;SDS011;2237;51.870;6.160;2023-04-01T23:16:54;2.75;;;1.83;;
4448;SDS011;2237;51.870;6.160;2023-04-01T23:22:16;3.97;;;2.47;;
4448;SDS011;2237;51.870;6.160;2023-04-01T23:28:14;3.92;;;2.60;;
4448;SDS011;2237;51.870;6.160;2023-04-01T23:38:20;5.75;;;3.78;;
4448;SDS011;2237;51.870;6.160;2023-04-01T23:40:48;6.93;;;3.90;;
4448;SDS011;2237;51.870;6.160;2023-04-01T23:43:36;6.63;;;4.32;;
4448;SDS011;2237;51.870;6.160;2023-04-01T23:46:06;7.65;;;4.40;;
4448;SDS011;2237;51.870;6.160;2023-04-01T23:48:37;6.50;;;4.57;;
4448;SDS011;2237;51.870;6.160;2023-04-01T23:51:13;7.40;;;4.20;;
4448;SDS011;2237;51.870;6.160;2023-04-01T23:53:46;5.90;;;4.10;;
4448;SDS011;2237;51.870;6.160;2023-04-01T23:56:17;7.90;;;3.95;;
4448;SDS011;2237;51.870;6.160;2023-04-01T23:58:44;6.85;;;3.75;;
